Terminal Aerodrome Forecast
Issued by NWS

Home | Current Version | Previous Version | Text Only | Print | Product List | Glossary On
Versions: 1 2 3 4 5 6 7 8 9 10 11 12 13 14 15 16 17 18 19 20 21 22 23 24 25 26 27 28 29 30 31 32 33 34 35 36 37 38 39 40
000
FTAK31 PANC 180534
TAFADU
TAF
PADU 180534Z 1806/1906 34012G20KT P6SM VCSH BKN040
     FM180800 02008KT P6SM BKN050
     FM181600 13009KT P6SM FEW250
     FM182200 14015G25KT P6SM -SHSN SCT030 BKN050
     FM190300 16010KT 5SM -SN BR BKN025=

USA.gov is the U.S. government's official web portal to all federal, state and local government web resources and services.